Wetterdaten: Woche 10.03.14 - 16.03.14 (KW11)
Datum Zeit Temp. A. Feuchte A. Luftdruck Regen Wind Richtung Taupunkt Windchill Windben
10.03.2014 00:00 2,9 C 74 % 1030,8 hPa 0,0 l/m 0,2 km/h N -1,2 C 2,9 C 2,4 km/h
10.03.2014 01:00 1,1 C 79 % 1031,1 hPa 0,0 l/m 0,3 km/h N -2,2 C 1,1 C 2,8 km/h
10.03.2014 02:00 0,3 C 82 % 1030,5 hPa 0,0 l/m 0,1 km/h N -2,4 C 0,3 C 1,6 km/h
10.03.2014 03:00 -0,6 C 83 % 1030,2 hPa 0,0 l/m 0,0 km/h N -3,1 C -0,6 C 0,0 km/h
10.03.2014 04:00 -1,3 C 84 % 1029,9 hPa 0,0 l/m 0,0 km/h N -3,6 C -1,3 C 0,8 km/h
10.03.2014 05:00 -1,8 C 85 % 1029,8 hPa 0,0 l/m 0,1 km/h N -3,9 C -1,8 C 1,2 km/h
10.03.2014 06:00 -2,3 C 85 % 1029,7 hPa 0,0 l/m 0,0 km/h N -4,5 C -2,3 C 0,8 km/h
10.03.2014 07:00 -1,7 C 84 % 1029,8 hPa 0,0 l/m 0,0 km/h N -4,0 C -1,7 C 0,0 km/h
10.03.2014 08:00 2,5 C 81 % 1029,9 hPa 0,0 l/m 0,7 km/h N -0,3 C 2,5 C 3,2 km/h
10.03.2014 09:00 7,6 C 66 % 1029,5 hPa 0,0 l/m 3,8 km/h N 1,5 C 7,6 C 11,7 km/h
10.03.2014 10:00 9,6 C 51 % 1029,2 hPa 0,0 l/m 8,3 km/h N -0,1 C 8,2 C 22,1 km/h
10.03.2014 11:00 10,3 C 47 % 1028,5 hPa 0,0 l/m 6,8 km/h N -0,6 C 9,7 C 18,5 km/h
10.03.2014 12:00 10,8 C 49 % 1028,2 hPa 0,0 l/m 5,4 km/h N 0,4 C 10,8 C 14,5 km/h
10.03.2014 13:00 11,2 C 48 % 1027,2 hPa 0,0 l/m 2,6 km/h N 0,5 C 11,2 C 12,9 km/h
10.03.2014 14:00 11,5 C 49 % 1026,2 hPa 0,0 l/m 1,3 km/h N 1,1 C 11,5 C 8,0 km/h
10.03.2014 15:00 11,9 C 46 % 1025,8 hPa 0,0 l/m 1,8 km/h N 0,4 C 11,9 C 12,1 km/h
10.03.2014 16:00 11,7 C 43 % 1026,0 hPa 0,0 l/m 0,8 km/h N -0,5 C 11,7 C 7,2 km/h
10.03.2014 17:00 10,5 C 42 % 1026,2 hPa 0,0 l/m 0,3 km/h N -1,7 C 10,5 C 4,4 km/h
10.03.2014 18:00 8,8 C 46 % 1026,2 hPa 0,0 l/m 0,0 km/h N -2,1 C 8,8 C 0,8 km/h
10.03.2014 19:00 6,1 C 55 % 1026,4 hPa 0,0 l/m 0,0 km/h N -2,2 C 6,1 C 0,4 km/h
10.03.2014 20:00 4,6 C 64 % 1026,1 hPa 0,0 l/m 0,1 km/h N -1,7 C 4,6 C 0,4 km/h
10.03.2014 21:00 3,8 C 67 % 1025,7 hPa 0,0 l/m 0,0 km/h N -1,9 C 3,8 C 0,0 km/h
10.03.2014 22:00 2,6 C 70 % 1025,6 hPa 0,0 l/m 0,0 km/h N -2,4 C 2,6 C 0,0 km/h
10.03.2014 23:00 1,4 C 74 % 1025,6 hPa 0,0 l/m 0,0 km/h N -2,8 C 1,4 C 0,0 km/h
11.03.2014 00:00 0,6 C 77 % 1025,5 hPa 0,0 l/m 0,0 km/h N -3,0 C 0,6 C 0,0 km/h
11.03.2014 01:00 0,8 C 77 % 1025,3 hPa 0,0 l/m 0,2 km/h N -2,7 C 0,8 C 2,4 km/h
11.03.2014 02:00 1,4 C 73 % 1025,1 hPa 0,0 l/m 0,4 km/h N -2,9 C 1,4 C 3,6 km/h
11.03.2014 03:00 0,6 C 72 % 1025,2 hPa 0,0 l/m 0,1 km/h N -3,9 C 0,6 C 2,0 km/h
11.03.2014 04:00 -0,3 C 75 % 1025,5 hPa 0,0 l/m 0,3 km/h N -4,2 C -0,3 C 3,2 km/h
11.03.2014 05:00 -1,2 C 77 % 1026,1 hPa 0,0 l/m 0,2 km/h N -4,7 C -1,2 C 2,4 km/h
11.03.2014 06:00 -0,4 C 76 % 1026,7 hPa 0,0 l/m 0,9 km/h N -4,1 C -0,4 C 4,4 km/h
11.03.2014 07:00 0,7 C 73 % 1027,3 hPa 0,0 l/m 0,8 km/h N -3,6 C 0,7 C 4,4 km/h
11.03.2014 08:00 4,9 C 62 % 1027,4 hPa 0,0 l/m 1,0 km/h N -1,8 C 4,9 C 4,4 km/h
11.03.2014 09:00 9,9 C 44 % 1027,5 hPa 0,0 l/m 2,9 km/h N -1,7 C 9,9 C 8,9 km/h
11.03.2014 10:00 11,9 C 41 % 1027,4 hPa 0,0 l/m 1,8 km/h N -1,1 C 11,9 C 7,6 km/h
11.03.2014 11:00 13,3 C 39 % 1027,3 hPa 0,0 l/m 2,0 km/h N -0,5 C 13,3 C 10,1 km/h
11.03.2014 12:00 14,4 C 37 % 1026,9 hPa 0,0 l/m 3,4 km/h N -0,3 C 14,4 C 11,7 km/h
11.03.2014 13:00 15,2 C 36 % 1026,4 hPa 0,0 l/m 5,3 km/h N 0,3 C 15,2 C 16,5 km/h
11.03.2014 14:00 14,9 C 36 % 1026,4 hPa 0,0 l/m 6,5 km/h N 0,1 C 14,8 C 19,7 km/h
11.03.2014 15:00 15,2 C 35 % 1026,3 hPa 0,0 l/m 5,8 km/h N -0,3 C 15,2 C 18,1 km/h
11.03.2014 16:00 15,1 C 34 % 1026,3 hPa 0,0 l/m 5,3 km/h N -0,6 C 15,1 C 15,7 km/h
11.03.2014 17:00 14,1 C 33 % 1026,8 hPa 0,0 l/m 2,4 km/h N -2,1 C 14,1 C 11,6 km/h
11.03.2014 18:00 11,3 C 37 % 1027,3 hPa 0,0 l/m 0,0 km/h N -3,1 C 11,3 C 0,4 km/h
11.03.2014 19:00 7,6 C 45 % 1028,0 hPa 0,0 l/m 0,0 km/h N -3,6 C 7,6 C 0,4 km/h
11.03.2014 20:00 5,7 C 52 % 1028,4 hPa 0,0 l/m 0,0 km/h N -3,3 C 5,7 C 0,4 km/h
11.03.2014 21:00 4,2 C 58 % 1029,0 hPa 0,0 l/m 0,4 km/h N -3,5 C 4,2 C 2,0 km/h
11.03.2014 22:00 7,1 C 49 % 1029,1 hPa 0,0 l/m 1,5 km/h N -3,0 C 7,1 C 7,6 km/h
11.03.2014 23:00 9,2 C 42 % 1029,3 hPa 0,0 l/m 2,9 km/h N -3,2 C 9,2 C 9,6 km/h
12.03.2014 00:00 9,1 C 41 % 1029,5 hPa 0,0 l/m 3,3 km/h N -3,7 C 9,1 C 10,9 km/h
12.03.2014 01:00 8,5 C 42 % 1029,7 hPa 0,0 l/m 2,3 km/h N -3,6 C 8,5 C 9,3 km/h
12.03.2014 02:00 6,6 C 47 % 1029,6 hPa 0,0 l/m 0,7 km/h N -3,8 C 6,6 C 5,6 km/h
12.03.2014 03:00 6,3 C 50 % 1029,6 hPa 0,0 l/m 1,0 km/h N -3,5 C 6,3 C 7,2 km/h
12.03.2014 04:00 6,7 C 49 % 1029,8 hPa 0,0 l/m 1,4 km/h N -3,4 C 6,7 C 8,0 km/h
12.03.2014 05:00 7,0 C 48 % 1030,1 hPa 0,0 l/m 2,4 km/h N -3,3 C 7,0 C 8,9 km/h
12.03.2014 06:00 6,7 C 50 % 1030,6 hPa 0,0 l/m 1,4 km/h N -3,1 C 6,7 C 6,8 km/h
12.03.2014 07:00 6,5 C 54 % 1031,4 hPa 0,0 l/m 1,5 km/h N -2,2 C 6,5 C 6,4 km/h
12.03.2014 08:00 8,5 C 54 % 1031,7 hPa 0,0 l/m 6,0 km/h N -0,3 C 8,5 C 17,3 km/h
12.03.2014 09:00 10,0 C 54 % 1031,9 hPa 0,0 l/m 7,2 km/h N 1,1 C 9,4 C 18,5 km/h
12.03.2014 10:00 11,7 C 52 % 1031,9 hPa 0,0 l/m 6,9 km/h N 2,3 C 11,4 C 17,2 km/h
12.03.2014 11:00 12,8 C 49 % 1031,6 hPa 0,0 l/m 5,1 km/h N 2,4 C 12,8 C 12,1 km/h
12.03.2014 12:00 13,6 C 46 % 1031,1 hPa 0,0 l/m 6,2 km/h N 2,1 C 13,5 C 17,3 km/h
12.03.2014 13:00 14,4 C 40 % 1030,3 hPa 0,0 l/m 6,8 km/h N 1,0 C 14,1 C 16,9 km/h
12.03.2014 14:00 14,9 C 32 % 1029,8 hPa 0,0 l/m 7,8 km/h N -1,7 C 14,1 C 21,3 km/h
12.03.2014 15:00 15,0 C 31 % 1029,5 hPa 0,0 l/m 6,8 km/h N -2,3 C 14,6 C 18,9 km/h
12.03.2014 16:00 14,8 C 27 % 1029,4 hPa 0,0 l/m 5,9 km/h N -4,3 C 14,6 C 19,3 km/h
12.03.2014 17:00 13,9 C 28 % 1029,6 hPa 0,0 l/m 4,4 km/h N -4,2 C 13,9 C 17,3 km/h
12.03.2014 18:00 11,9 C 32 % 1030,0 hPa 0,0 l/m 0,6 km/h N -4,2 C 11,9 C 4,8 km/h
12.03.2014 19:00 9,9 C 37 % 1030,5 hPa 0,0 l/m 0,4 km/h N -4,1 C 9,9 C 4,8 km/h
12.03.2014 20:00 8,3 C 43 % 1030,8 hPa 0,0 l/m 0,5 km/h N -3,6 C 8,3 C 4,0 km/h
12.03.2014 21:00 7,2 C 48 % 1030,9 hPa 0,0 l/m 0,6 km/h N -3,0 C 7,2 C 3,6 km/h
12.03.2014 22:00 6,1 C 52 % 1030,9 hPa 0,0 l/m 0,1 km/h N -2,9 C 6,1 C 0,8 km/h
12.03.2014 23:00 3,9 C 60 % 1031,1 hPa 0,0 l/m 0,0 km/h N -3,1 C 3,9 C 0,0 km/h
13.03.2014 00:00 2,9 C 65 % 1031,1 hPa 0,0 l/m 0,1 km/h N -3,0 C 2,9 C 2,8 km/h
13.03.2014 01:00 2,7 C 65 % 1030,8 hPa 0,0 l/m 0,2 km/h N -3,2 C 2,7 C 3,2 km/h
13.03.2014 02:00 2,0 C 68 % 1030,6 hPa 0,0 l/m 0,2 km/h N -3,4 C 2,0 C 2,8 km/h
13.03.2014 03:00 1,4 C 71 % 1030,4 hPa 0,0 l/m 0,2 km/h N -3,2 C 1,4 C 2,8 km/h
13.03.2014 04:00 1,2 C 72 % 1030,3 hPa 0,0 l/m 0,4 km/h N -3,3 C 1,2 C 3,2 km/h
13.03.2014 05:00 1,0 C 73 % 1030,4 hPa 0,0 l/m 0,2 km/h N -3,4 C 1,0 C 2,4 km/h
13.03.2014 06:00 0,5 C 74 % 1030,7 hPa 0,0 l/m 0,1 km/h N -3,7 C 0,5 C 1,6 km/h
13.03.2014 07:00 0,4 C 78 % 1031,0 hPa 0,0 l/m 0,1 km/h N -3,1 C 0,4 C 1,6 km/h
13.03.2014 08:00 4,1 C 72 % 1031,0 hPa 0,0 l/m 0,2 km/h N -0,7 C 4,1 C 2,8 km/h
13.03.2014 09:00 8,8 C 55 % 1030,6 hPa 0,0 l/m 0,4 km/h N 0,1 C 8,8 C 3,6 km/h
13.03.2014 10:00 10,6 C 50 % 1030,4 hPa 0,0 l/m 0,9 km/h N 0,7 C 10,6 C 6,8 km/h
13.03.2014 11:00 11,5 C 48 % 1029,9 hPa 0,0 l/m 2,0 km/h N 0,9 C 11,5 C 8,1 km/h
13.03.2014 12:00 13,2 C 45 % 1029,2 hPa 0,0 l/m 3,5 km/h N 1,5 C 13,2 C 13,7 km/h
13.03.2014 13:00 14,5 C 42 % 1028,1 hPa 0,0 l/m 3,5 km/h N 1,6 C 14,5 C 12,5 km/h
13.03.2014 14:00 15,1 C 42 % 1027,3 hPa 0,0 l/m 1,3 km/h N 2,4 C 15,1 C 8,5 km/h
13.03.2014 15:00 15,8 C 41 % 1026,5 hPa 0,0 l/m 1,8 km/h N 2,4 C 15,8 C 7,6 km/h
13.03.2014 16:00 15,7 C 41 % 1026,2 hPa 0,0 l/m 1,1 km/h N 2,4 C 15,7 C 6,0 km/h
13.03.2014 17:00 14,6 C 43 % 1026,2 hPa 0,0 l/m 0,3 km/h N 2,3 C 14,6 C 3,2 km/h
13.03.2014 18:00 11,8 C 49 % 1026,3 hPa 0,0 l/m 0,0 km/h N 1,4 C 11,8 C 0,0 km/h
13.03.2014 19:00 8,1 C 60 % 1026,6 hPa 0,0 l/m 0,0 km/h N 0,9 C 8,1 C 0,4 km/h
13.03.2014 20:00 6,0 C 67 % 1026,4 hPa 0,0 l/m 0,0 km/h N 0,4 C 6,0 C 0,4 km/h
13.03.2014 21:00 4,6 C 72 % 1026,3 hPa 0,0 l/m 0,0 km/h N -0,1 C 4,6 C 0,4 km/h
13.03.2014 22:00 3,9 C 75 % 1026,3 hPa 0,0 l/m 0,0 km/h N -0,1 C 3,9 C 2,0 km/h
13.03.2014 23:00 3,6 C 77 % 1026,1 hPa 0,0 l/m 0,3 km/h N -0,0 C 3,6 C 2,8 km/h
14.03.2014 00:00 3,4 C 77 % 1025,8 hPa 0,0 l/m 0,3 km/h N -0,3 C 3,4 C 2,4 km/h
14.03.2014 01:00 3,0 C 77 % 1025,8 hPa 0,0 l/m 0,3 km/h N -0,6 C 3,0 C 2,8 km/h
14.03.2014 02:00 1,8 C 80 % 1025,6 hPa 0,0 l/m 0,0 km/h N -1,3 C 1,8 C 0,4 km/h
14.03.2014 03:00 1,3 C 82 % 1025,6 hPa 0,0 l/m 0,4 km/h N -1,4 C 1,3 C 2,8 km/h
14.03.2014 04:00 1,6 C 83 % 1025,4 hPa 0,0 l/m 0,1 km/h N -1,0 C 1,6 C 1,6 km/h
14.03.2014 05:00 0,5 C 82 % 1025,7 hPa 0,0 l/m 0,0 km/h N -2,1 C 0,5 C 0,0 km/h
14.03.2014 06:00 -0,1 C 84 % 1025,9 hPa 0,0 l/m 0,0 km/h N -2,5 C -0,1 C 1,6 km/h
14.03.2014 07:00 0,9 C 85 % 1026,2 hPa 0,0 l/m 0,0 km/h N -1,5 C 0,9 C 0,0 km/h
14.03.2014 08:00 5,3 C 82 % 1026,3 hPa 0,0 l/m 0,2 km/h N 2,5 C 5,3 C 2,0 km/h
14.03.2014 09:00 11,3 C 59 % 1025,8 hPa 0,0 l/m 1,0 km/h N 3,6 C 11,3 C 5,6 km/h
14.03.2014 10:00 15,7 C 48 % 1025,1 hPa 0,0 l/m 1,5 km/h N 4,6 C 15,7 C 6,8 km/h
14.03.2014 11:00 17,6 C 38 % 1024,6 hPa 0,0 l/m 5,2 km/h N 3,0 C 17,6 C 14,5 km/h
14.03.2014 12:00 18,4 C 34 % 1023,8 hPa 0,0 l/m 6,0 km/h N 2,2 C 18,3 C 14,5 km/h
14.03.2014 13:00 19,1 C 32 % 1022,6 hPa 0,0 l/m 6,1 km/h N 1,9 C 19,0 C 16,1 km/h
14.03.2014 14:00 19,4 C 32 % 1021,9 hPa 0,0 l/m 5,9 km/h N 2,2 C 19,3 C 16,1 km/h
14.03.2014 15:00 19,6 C 32 % 1021,1 hPa 0,0 l/m 4,3 km/h N 2,3 C 19,6 C 12,9 km/h
14.03.2014 16:00 19,4 C 33 % 1020,6 hPa 0,0 l/m 1,8 km/h N 2,6 C 19,4 C 8,4 km/h
14.03.2014 17:00 17,9 C 35 % 1020,6 hPa 0,0 l/m 1,7 km/h N 2,3 C 17,9 C 8,8 km/h
14.03.2014 18:00 14,7 C 42 % 1020,7 hPa 0,0 l/m 0,0 km/h N 2,0 C 14,7 C 0,4 km/h
14.03.2014 19:00 10,4 C 52 % 1020,7 hPa 0,0 l/m 0,0 km/h N 1,0 C 10,4 C 0,0 km/h
14.03.2014 20:00 8,1 C 61 % 1020,2 hPa 0,0 l/m 0,0 km/h N 1,1 C 8,1 C 0,4 km/h
14.03.2014 21:00 7,5 C 65 % 1019,6 hPa 0,0 l/m 0,6 km/h N 1,3 C 7,5 C 2,4 km/h
14.03.2014 22:00 9,4 C 59 % 1018,9 hPa 0,0 l/m 2,3 km/h N 1,8 C 9,4 C 6,8 km/h
14.03.2014 23:00 9,3 C 58 % 1018,1 hPa 0,0 l/m 0,5 km/h N 1,5 C 9,3 C 3,2 km/h
15.03.2014 00:00 9,3 C 60 % 1017,3 hPa 0,0 l/m 2,2 km/h N 1,8 C 9,3 C 6,8 km/h
15.03.2014 01:00 11,4 C 53 % 1016,6 hPa 0,0 l/m 3,3 km/h N 2,2 C 11,4 C 8,9 km/h
15.03.2014 02:00 11,8 C 53 % 1015,7 hPa 0,0 l/m 1,2 km/h N 2,6 C 11,8 C 9,7 km/h
15.03.2014 03:00 10,3 C 56 % 1014,5 hPa 0,0 l/m 0,3 km/h N 1,9 C 10,3 C 5,2 km/h
15.03.2014 04:00 6,3 C 69 % 1014,0 hPa 0,0 l/m 0,6 km/h N 0,9 C 6,3 C 7,2 km/h
15.03.2014 05:00 11,3 C 57 % 1013,1 hPa 0,0 l/m 8,4 km/h N 2,8 C 9,7 C 29,4 km/h
15.03.2014 06:00 14,1 C 44 % 1012,4 hPa 0,0 l/m 13,1 km/h N 1,9 C 11,1 C 37,4 km/h
15.03.2014 07:00 14,6 C 43 % 1011,5 hPa 0,0 l/m 17,4 km/h N 2,1 C 10,0 C 47,4 km/h
15.03.2014 08:00 14,8 C 43 % 1010,9 hPa 0,0 l/m 21,4 km/h N 2,4 C 9,2 C 48,3 km/h
15.03.2014 09:00 15,0 C 42 % 1010,8 hPa 0,0 l/m 19,5 km/h N 2,2 C 9,9 C 48,7 km/h
15.03.2014 10:00 15,2 C 41 % 1010,1 hPa 0,0 l/m 16,0 km/h N 1,9 C 11,1 C 43,8 km/h
15.03.2014 11:00 15,3 C 42 % 1010,0 hPa 0,0 l/m 18,4 km/h N 2,5 C 10,5 C 46,7 km/h
15.03.2014 12:00 15,6 C 37 % 1009,9 hPa 0,0 l/m 20,9 km/h N 1,0 C 10,3 C 44,7 km/h
15.03.2014 13:00 14,8 C 41 % 1009,7 hPa 0,0 l/m 17,6 km/h N 1,4 C 10,1 C 44,3 km/h
15.03.2014 14:00 11,3 C 61 % 1010,4 hPa 0,0 l/m 18,0 km/h N 4,0 C 5,8 C 45,5 km/h
15.03.2014 15:00 9,4 C 72 % 1011,3 hPa 3,4 l/m 24,3 km/h N 4,5 C 1,2 C 53,9 km/h
15.03.2014 16:00 7,4 C 78 % 1013,0 hPa 4,7 l/m 17,7 km/h N 3,8 C 0,8 C 41,8 km/h
15.03.2014 17:00 6,3 C 79 % 1012,9 hPa 1,0 l/m 15,9 km/h N 2,9 C 0,2 C 35,4 km/h
15.03.2014 18:00 7,3 C 72 % 1013,3 hPa 0,0 l/m 10,7 km/h N 2,6 C 4,4 C 26,1 km/h
15.03.2014 19:00 7,5 C 71 % 1014,0 hPa 0,0 l/m 11,4 km/h N 2,5 C 4,0 C 26,5 km/h
15.03.2014 20:00 7,7 C 70 % 1014,3 hPa 0,0 l/m 14,1 km/h N 2,6 C 2,8 C 32,6 km/h
15.03.2014 21:00 7,7 C 71 % 1014,7 hPa 0,0 l/m 13,7 km/h N 2,8 C 3,0 C 32,6 km/h
15.03.2014 22:00 7,6 C 72 % 1014,9 hPa 0,0 l/m 11,8 km/h N 2,8 C 3,9 C 30,6 km/h
15.03.2014 23:00 7,7 C 69 % 1014,4 hPa 0,0 l/m 13,4 km/h N 2,4 C 3,1 C 33,8 km/h
16.03.2014 00:00 7,8 C 68 % 1013,8 hPa 0,0 l/m 13,8 km/h N 2,4 C 3,2 C 32,6 km/h
16.03.2014 01:00 8,1 C 67 % 1013,1 hPa 0,0 l/m 17,0 km/h N 2,2 C 2,0 C 45,5 km/h
16.03.2014 02:00 7,6 C 72 % 1012,4 hPa 0,0 l/m 16,0 km/h N 2,9 C 1,9 C 41,0 km/h
16.03.2014 03:00 7,5 C 74 % 1011,9 hPa 0,0 l/m 16,7 km/h N 3,1 C 1,4 C 40,7 km/h
16.03.2014 04:00 8,0 C 70 % 1011,1 hPa 0,3 l/m 20,8 km/h N 2,8 C 0,4 C 49,1 km/h
16.03.2014 05:00 8,3 C 69 % 1009,6 hPa 0,0 l/m 17,5 km/h N 2,9 C 2,0 C 43,8 km/h
16.03.2014 06:00 8,8 C 68 % 1008,6 hPa 0,0 l/m 21,9 km/h N 3,2 C 1,2 C 58,3 km/h
16.03.2014 07:00 9,2 C 68 % 1007,9 hPa 0,0 l/m 22,8 km/h N 3,6 C 1,3 C 58,3 km/h
16.03.2014 08:00 9,5 C 70 % 1007,2 hPa 0,0 l/m 25,6 km/h N 4,2 C 1,0 C 65,6 km/h
16.03.2014 09:00 9,8 C 71 % 1007,4 hPa 0,0 l/m 23,8 km/h N 4,7 C 1,9 C 57,9 km/h
16.03.2014 10:00 10,8 C 69 % 1007,0 hPa 0,0 l/m 27,0 km/h N 5,2 C 2,4 C 65,2 km/h
16.03.2014 11:00 11,6 C 67 % 1007,2 hPa 0,0 l/m 30,7 km/h N 5,8 C 2,9 C 64,0 km/h
16.03.2014 12:00 12,3 C 66 % 1007,1 hPa 0,0 l/m 33,3 km/h N 6,1 C 3,3 C 69,2 km/h
16.03.2014 13:00 12,9 C 64 % 1006,8 hPa 0,0 l/m 31,6 km/h N 6,2 C 4,5 C 67,2 km/h
16.03.2014 14:00 13,1 C 64 % 1006,5 hPa 0,0 l/m 33,7 km/h N 6,3 C 4,4 C 70,8 km/h
16.03.2014 15:00 13,2 C 64 % 1006,6 hPa 0,0 l/m 31,0 km/h N 6,5 C 4,9 C 61,2 km/h
16.03.2014 16:00 12,9 C 65 % 1007,3 hPa 0,0 l/m 26,9 km/h N 6,5 C 5,4 C 62,0 km/h
16.03.2014 17:00 12,6 C 67 % 1008,1 hPa 0,0 l/m 26,5 km/h N 6,5 C 5,0 C 59,6 km/h
16.03.2014 18:00 12,6 C 67 % 1009,3 hPa 0,0 l/m 25,9 km/h N 6,6 C 5,2 C 57,1 km/h
16.03.2014 19:00 12,9 C 67 % 1010,9 hPa 0,0 l/m 22,2 km/h N 6,8 C 6,4 C 49,1 km/h
16.03.2014 20:00 13,1 C 65 % 1011,4 hPa 0,0 l/m 22,2 km/h N 6,6 C 6,7 C 51,1 km/h
16.03.2014 21:00 13,3 C 63 % 1012,2 hPa 0,0 l/m 23,8 km/h N 6,4 C 6,6 C 51,5 km/h
16.03.2014 22:00 13,4 C 63 % 1012,8 hPa 0,0 l/m 20,2 km/h N 6,5 C 7,6 C 47,1 km/h
16.03.2014 23:00 13,3 C 64 % 1013,4 hPa 0,0 l/m 17,9 km/h N 6,6 C 8,2 C 46,3 km/h
Min-Datum _ 10.03.14 12.03.14 16.03.14 - 10.03.14 - 11.03.14 15.03.14 10.03.14
_ Min-Zeit 06:30 16:00 15:15 - 00:15 - 05:00 16:45 02:15
Minimum _ -2,4 C 26 % 1006,3 hPa - 0,0 km/h - -5,0 C -3,0 C 0,0 km/h
Max-Datum _ 14.03.14 10.03.14 12.03.14 15.03.14 16.03.14 - 16.03.14 14.03.14 16.03.14
_ Max-Zeit 15:30 04:45 09:45 16:30 14:00 - 19:00 15:15 13:15
Maximum _ 19,7 C 85 % 1032,0 hPa 4,7 l/m 35,4 km/h
N
- 6,8 C 19,6 C 77,2 km/h
N
Durchschnitt _ 8,7 C 58 % 1022,8 hPa #9,4 l/m 6,5 km/h N 0,3 C 7,1 C 17,2 km/h